Mandalay International Airport
VYMD : now visible

Airfield :











YOU CAN JOIN US ON...

 
LOGIN :

Register | Disclaimer

   EN    FR    IT 

 









Legend :    VFR   Marginal VFR   IFR   Intensive IFR   Very Intensive IFR
Visi :
Ceiling :
>= 8 km
>= 3000ft
5 to 8 km
1000 to 3000 ft
1500m to 5 km
500 to 1000 ft
800 to 1500m
200 to 500 ft
< 800m
< 200 ft
Symbols :   Thunderstorms  Fog  Heavy snow  Heavy precipitations  Wind > 20 kt






- Airport Elevation : 300 ft
- IATA code : MDL


VYMD - Mandalay International

CURRENT METAR :
  • 181030Z 34007KT 7000 BKN020 FEW025CB BKN120 35/24 Q999

EXPIRED METARs :
  • 180930Z 33007KT 7000 BKN020 FEW025TCU BKN120 36/25 Q999
  • 180830Z 32007KT 7000 BKN020 FEW025TCU BKN120 36/25 Q1000

TAF TAF VYMD
Valid from the 18 at 06:00 until the 19 at 06:00 UTC


180500Z 1806/1906 18007KT 7000 BKN020 FEW025CB
TEMPO 1806/1812 14010G15KT 5000 -TSRA BKN018 FEW025CB BKN100
VYYF FIR / Asia



MET'MAP, your aeronautical weather chart ! - Copyright ORBIFLY December 2007 - Disclaimer

ORBIFLY MET'MAP TEAM :

Programming & Development : Alexandra Zaïnal
Concept & original design : Baudouin d'Aumeries
Assistance for programming : Marc-Olivier Méhu
Technical & hardware support : Manuel Goepfert

Contact : metmap@orbifly.com




SOURCES & CREDITS :

   NOAA       Earth
Advisory